Airport View

Enter ICAO identifier to see the current METAR for that AWOS.

KFNL for example

K88M 292249Z AUTO 28006KT 10SM 36/02 A3004

29 Jul 2014 22:53

Frequency: 118.375

Phone: 406-889-3366

Other Area AWOS: KS59 - CWRT - CWGW - CWSW

TAF CYXC 291838Z 2919/3007 VRB03KT P6SM FEW080 BECMG 2920/2922 12010KT FM292200 12008KT P6SM SCT080 BECMG 3004/3006 34008KT RMK NXT FCST BY 300100Z